sensor_id;sensor_type;location;lat;lon;timestamp;P1;durP1;ratioP1;P2;durP2;ratioP2
62798;SDS011;48842;51.046;13.796;2023-10-08T00:01:01;7.10;;;4.60;;
62798;SDS011;48842;51.046;13.796;2023-10-08T00:03:27;7.00;;;4.10;;
62798;SDS011;48842;51.046;13.796;2023-10-08T00:05:54;7.80;;;4.53;;
62798;SDS011;48842;51.046;13.796;2023-10-08T00:08:20;9.13;;;4.60;;
62798;SDS011;48842;51.046;13.796;2023-10-08T00:10:47;7.53;;;3.80;;
62798;SDS011;48842;51.046;13.796;2023-10-08T00:13:13;7.37;;;3.80;;
62798;SDS011;48842;51.046;13.796;2023-10-08T00:15:43;11.20;;;4.20;;
62798;SDS011;48842;51.046;13.796;2023-10-08T00:18:18;8.50;;;4.87;;
62798;SDS011;48842;51.046;13.796;2023-10-08T00:20:44;7.53;;;3.90;;
62798;SDS011;48842;51.046;13.796;2023-10-08T00:23:28;9.23;;;4.77;;
62798;SDS011;48842;51.046;13.796;2023-10-08T00:25:53;7.83;;;4.20;;
62798;SDS011;48842;51.046;13.796;2023-10-08T00:28:19;6.23;;;3.67;;
62798;SDS011;48842;51.046;13.796;2023-10-08T00:30:46;10.13;;;4.40;;
62798;SDS011;48842;51.046;13.796;2023-10-08T00:33:12;10.43;;;4.53;;
62798;SDS011;48842;51.046;13.796;2023-10-08T00:35:39;9.57;;;4.87;;
62798;SDS011;48842;51.046;13.796;2023-10-08T00:38:06;5.20;;;4.13;;
62798;SDS011;48842;51.046;13.796;2023-10-08T00:40:42;9.17;;;3.97;;
62798;SDS011;48842;51.046;13.796;2023-10-08T00:43:10;10.17;;;4.47;;
62798;SDS011;48842;51.046;13.796;2023-10-08T00:45:53;6.60;;;4.50;;
62798;SDS011;48842;51.046;13.796;2023-10-08T00:48:19;12.17;;;4.67;;
62798;SDS011;48842;51.046;13.796;2023-10-08T00:50:47;11.20;;;4.47;;
62798;SDS011;48842;51.046;13.796;2023-10-08T00:53:12;9.47;;;4.90;;
62798;SDS011;48842;51.046;13.796;2023-10-08T00:55:48;8.70;;;5.10;;
62798;SDS011;48842;51.046;13.796;2023-10-08T00:58:29;11.50;;;5.10;;
62798;SDS011;48842;51.046;13.796;2023-10-08T01:00:59;5.60;;;4.23;;
62798;SDS011;48842;51.046;13.796;2023-10-08T01:03:24;19.83;;;5.97;;
62798;SDS011;48842;51.046;13.796;2023-10-08T01:05:54;9.37;;;5.00;;
62798;SDS011;48842;51.046;13.796;2023-10-08T01:08:19;11.80;;;5.10;;
62798;SDS011;48842;51.046;13.796;2023-10-08T01:10:59;10.33;;;4.87;;
62798;SDS011;48842;51.046;13.796;2023-10-08T01:13:40;7.73;;;5.10;;
62798;SDS011;48842;51.046;13.796;2023-10-08T01:16:10;9.93;;;4.90;;
62798;SDS011;48842;51.046;13.796;2023-10-08T01:18:35;5.90;;;4.63;;
62798;SDS011;48842;51.046;13.796;2023-10-08T01:21:01;12.80;;;4.83;;
62798;SDS011;48842;51.046;13.796;2023-10-08T01:23:33;11.10;;;5.80;;
62798;SDS011;48842;51.046;13.796;2023-10-08T01:25:58;9.60;;;5.53;;
62798;SDS011;48842;51.046;13.796;2023-10-08T01:28:35;9.53;;;5.47;;
62798;SDS011;48842;51.046;13.796;2023-10-08T01:31:01;12.80;;;6.10;;
62798;SDS011;48842;51.046;13.796;2023-10-08T01:33:31;13.80;;;6.87;;
62798;SDS011;48842;51.046;13.796;2023-10-08T01:36:02;11.43;;;6.77;;
62798;SDS011;48842;51.046;13.796;2023-10-08T01:38:32;8.90;;;5.77;;
62798;SDS011;48842;51.046;13.796;2023-10-08T01:41:00;16.00;;;7.77;;
62798;SDS011;48842;51.046;13.796;2023-10-08T01:43:30;11.60;;;7.00;;
62798;SDS011;48842;51.046;13.796;2023-10-08T01:45:56;15.30;;;8.47;;
62798;SDS011;48842;51.046;13.796;2023-10-08T01:48:21;13.80;;;9.27;;
62798;SDS011;48842;51.046;13.796;2023-10-08T01:51:02;12.70;;;9.13;;
62798;SDS011;48842;51.046;13.796;2023-10-08T01:53:34;12.10;;;6.80;;
62798;SDS011;48842;51.046;13.796;2023-10-08T01:56:01;9.80;;;5.90;;
62798;SDS011;48842;51.046;13.796;2023-10-08T01:58:26;5.17;;;4.00;;
62798;SDS011;48842;51.046;13.796;2023-10-08T02:00:53;3.93;;;2.97;;
62798;SDS011;48842;51.046;13.796;2023-10-08T02:03:23;1.60;;;1.50;;
62798;SDS011;48842;51.046;13.796;2023-10-08T02:05:48;2.40;;;1.23;;
62798;SDS011;48842;51.046;13.796;2023-10-08T02:08:18;4.77;;;0.77;;
62798;SDS011;48842;51.046;13.796;2023-10-08T02:10:44;1.03;;;0.90;;
62798;SDS011;48842;51.046;13.796;2023-10-08T02:13:12;1.63;;;0.60;;
62798;SDS011;48842;51.046;13.796;2023-10-08T02:15:48;0.60;;;0.40;;
62798;SDS011;48842;51.046;13.796;2023-10-08T02:18:17;0.57;;;0.40;;
62798;SDS011;48842;51.046;13.796;2023-10-08T02:20:42;0.53;;;0.40;;
62798;SDS011;48842;51.046;13.796;2023-10-08T02:23:08;0.50;;;0.40;;
62798;SDS011;48842;51.046;13.796;2023-10-08T02:25:36;0.50;;;0.40;;
62798;SDS011;48842;51.046;13.796;2023-10-08T02:28:03;2.00;;;0.40;;
62798;SDS011;48842;51.046;13.796;2023-10-08T02:30:28;0.50;;;0.30;;
62798;SDS011;48842;51.046;13.796;2023-10-08T02:32:54;1.10;;;0.40;;
62798;SDS011;48842;51.046;13.796;2023-10-08T02:35:19;2.57;;;0.33;;
62798;SDS011;48842;51.046;13.796;2023-10-08T02:37:44;0.50;;;0.40;;
62798;SDS011;48842;51.046;13.796;2023-10-08T02:40:10;0.50;;;0.30;;
62798;SDS011;48842;51.046;13.796;2023-10-08T02:42:51;0.50;;;0.30;;
62798;SDS011;48842;51.046;13.796;2023-10-08T02:45:24;0.50;;;0.40;;
62798;SDS011;48842;51.046;13.796;2023-10-08T02:47:50;0.50;;;0.30;;
62798;SDS011;48842;51.046;13.796;2023-10-08T02:50:17;0.50;;;0.30;;
62798;SDS011;48842;51.046;13.796;2023-10-08T02:52:43;0.50;;;0.30;;
62798;SDS011;48842;51.046;13.796;2023-10-08T02:55:09;0.50;;;0.30;;
62798;SDS011;48842;51.046;13.796;2023-10-08T02:57:48;0.50;;;0.40;;
62798;SDS011;48842;51.046;13.796;2023-10-08T03:00:15;0.50;;;0.37;;
62798;SDS011;48842;51.046;13.796;2023-10-08T03:02:42;0.50;;;0.40;;
62798;SDS011;48842;51.046;13.796;2023-10-08T03:05:07;0.50;;;0.30;;
62798;SDS011;48842;51.046;13.796;2023-10-08T03:07:33;0.50;;;0.30;;
62798;SDS011;48842;51.046;13.796;2023-10-08T03:10:00;0.50;;;0.30;;
62798;SDS011;48842;51.046;13.796;2023-10-08T03:12:31;0.50;;;0.30;;
62798;SDS011;48842;51.046;13.796;2023-10-08T03:15:00;0.50;;;0.40;;
62798;SDS011;48842;51.046;13.796;2023-10-08T03:17:38;0.53;;;0.37;;
62798;SDS011;48842;51.046;13.796;2023-10-08T03:20:14;0.50;;;0.30;;
62798;SDS011;48842;51.046;13.796;2023-10-08T03:22:58;0.50;;;0.40;;
62798;SDS011;48842;51.046;13.796;2023-10-08T03:25:24;0.50;;;0.30;;
62798;SDS011;48842;51.046;13.796;2023-10-08T03:27:50;0.50;;;0.30;;
62798;SDS011;48842;51.046;13.796;2023-10-08T03:30:15;0.50;;;0.30;;
62798;SDS011;48842;51.046;13.796;2023-10-08T03:32:42;0.50;;;0.30;;
62798;SDS011;48842;51.046;13.796;2023-10-08T03:35:09;0.87;;;0.40;;
62798;SDS011;48842;51.046;13.796;2023-10-08T03:37:38;0.50;;;0.30;;
62798;SDS011;48842;51.046;13.796;2023-10-08T03:40:10;0.50;;;0.40;;
62798;SDS011;48842;51.046;13.796;2023-10-08T03:42:50;0.90;;;0.30;;
62798;SDS011;48842;51.046;13.796;2023-10-08T03:45:16;0.60;;;0.40;;
62798;SDS011;48842;51.046;13.796;2023-10-08T03:48:01;4.80;;;0.87;;
62798;SDS011;48842;51.046;13.796;2023-10-08T03:50:33;1.87;;;0.70;;
62798;SDS011;48842;51.046;13.796;2023-10-08T03:53:06;3.80;;;2.00;;
62798;SDS011;48842;51.046;13.796;2023-10-08T03:55:36;5.87;;;1.60;;
62798;SDS011;48842;51.046;13.796;2023-10-08T03:58:06;3.03;;;1.00;;
62798;SDS011;48842;51.046;13.796;2023-10-08T04:00:36;3.00;;;1.10;;
62798;SDS011;48842;51.046;13.796;2023-10-08T04:03:06;3.83;;;1.77;;
62798;SDS011;48842;51.046;13.796;2023-10-08T04:05:37;4.47;;;1.47;;
62798;SDS011;48842;51.046;13.796;2023-10-08T04:08:17;5.90;;;1.30;;
62798;SDS011;48842;51.046;13.796;2023-10-08T04:10:43;4.07;;;1.53;;
62798;SDS011;48842;51.046;13.796;2023-10-08T04:13:09;1.87;;;0.80;;
62798;SDS011;48842;51.046;13.796;2023-10-08T04:15:37;2.60;;;1.30;;
62798;SDS011;48842;51.046;13.796;2023-10-08T04:18:09;4.67;;;1.40;;
62798;SDS011;48842;51.046;13.796;2023-10-08T04:20:35;3.50;;;1.50;;
62798;SDS011;48842;51.046;13.796;2023-10-08T04:23:04;7.13;;;1.63;;
62798;SDS011;48842;51.046;13.796;2023-10-08T04:25:38;5.53;;;1.43;;
62798;SDS011;48842;51.046;13.796;2023-10-08T04:28:04;2.93;;;1.53;;
62798;SDS011;48842;51.046;13.796;2023-10-08T04:30:33;2.77;;;1.20;;
62798;SDS011;48842;51.046;13.796;2023-10-08T04:35:36;3.63;;;1.40;;
62798;SDS011;48842;51.046;13.796;2023-10-08T04:38:12;3.30;;;1.10;;
62798;SDS011;48842;51.046;13.796;2023-10-08T04:40:42;2.63;;;1.20;;
62798;SDS011;48842;51.046;13.796;2023-10-08T04:43:13;3.57;;;1.10;;
62798;SDS011;48842;51.046;13.796;2023-10-08T04:45:40;2.07;;;1.20;;
62798;SDS011;48842;51.046;13.796;2023-10-08T04:48:06;4.47;;;1.23;;
62798;SDS011;48842;51.046;13.796;2023-10-08T04:50:35;3.10;;;1.27;;
62798;SDS011;48842;51.046;13.796;2023-10-08T04:53:03;3.77;;;1.80;;
62798;SDS011;48842;51.046;13.796;2023-10-08T04:55:34;1.97;;;1.70;;
62798;SDS011;48842;51.046;13.796;2023-10-08T04:58:00;3.00;;;1.70;;
62798;SDS011;48842;51.046;13.796;2023-10-08T05:00:29;2.90;;;1.40;;
62798;SDS011;48842;51.046;13.796;2023-10-08T05:03:08;1.77;;;1.10;;
62798;SDS011;48842;51.046;13.796;2023-10-08T05:05:40;3.67;;;1.30;;
62798;SDS011;48842;51.046;13.796;2023-10-08T05:08:20;4.97;;;1.53;;
62798;SDS011;48842;51.046;13.796;2023-10-08T05:11:09;6.10;;;1.67;;
62798;SDS011;48842;51.046;13.796;2023-10-08T05:13:50;2.53;;;1.10;;
62798;SDS011;48842;51.046;13.796;2023-10-08T05:16:27;3.33;;;1.20;;
62798;SDS011;48842;51.046;13.796;2023-10-08T05:19:02;1.93;;;1.20;;
62798;SDS011;48842;51.046;13.796;2023-10-08T05:21:59;2.53;;;0.90;;
62798;SDS011;48842;51.046;13.796;2023-10-08T05:24:42;2.10;;;1.17;;
62798;SDS011;48842;51.046;13.796;2023-10-08T05:27:16;1.93;;;1.13;;
62798;SDS011;48842;51.046;13.796;2023-10-08T05:30:02;2.93;;;1.47;;
62798;SDS011;48842;51.046;13.796;2023-10-08T05:32:46;2.70;;;1.10;;
62798;SDS011;48842;51.046;13.796;2023-10-08T05:35:30;2.17;;;1.17;;
62798;SDS011;48842;51.046;13.796;2023-10-08T05:38:14;1.10;;;0.80;;
62798;SDS011;48842;51.046;13.796;2023-10-08T05:40:48;1.57;;;1.07;;
62798;SDS011;48842;51.046;13.796;2023-10-08T05:43:23;2.93;;;1.10;;
62798;SDS011;48842;51.046;13.796;2023-10-08T05:46:08;1.00;;;0.90;;
62798;SDS011;48842;51.046;13.796;2023-10-08T05:48:52;2.60;;;1.20;;
62798;SDS011;48842;51.046;13.796;2023-10-08T05:51:41;0.70;;;0.70;;
62798;SDS011;48842;51.046;13.796;2023-10-08T05:54:14;1.47;;;1.10;;
62798;SDS011;48842;51.046;13.796;2023-10-08T05:59:36;3.33;;;1.40;;
62798;SDS011;48842;51.046;13.796;2023-10-08T06:02:30;2.70;;;1.30;;
62798;SDS011;48842;51.046;13.796;2023-10-08T06:05:03;2.53;;;1.43;;
62798;SDS011;48842;51.046;13.796;2023-10-08T06:10:23;2.90;;;1.37;;
62798;SDS011;48842;51.046;13.796;2023-10-08T06:13:03;2.33;;;1.50;;
62798;SDS011;48842;51.046;13.796;2023-10-08T06:15:42;1.53;;;1.43;;
62798;SDS011;48842;51.046;13.796;2023-10-08T06:18:24;2.63;;;1.27;;
62798;SDS011;48842;51.046;13.796;2023-10-08T06:20:54;3.47;;;1.20;;
62798;SDS011;48842;51.046;13.796;2023-10-08T06:23:20;3.20;;;1.50;;
62798;SDS011;48842;51.046;13.796;2023-10-08T06:25:48;2.13;;;1.83;;
62798;SDS011;48842;51.046;13.796;2023-10-08T06:28:19;2.20;;;1.30;;
62798;SDS011;48842;51.046;13.796;2023-10-08T06:30:45;2.33;;;1.47;;
62798;SDS011;48842;51.046;13.796;2023-10-08T06:33:11;2.93;;;1.23;;
62798;SDS011;48842;51.046;13.796;2023-10-08T06:35:36;3.13;;;1.20;;
62798;SDS011;48842;51.046;13.796;2023-10-08T06:38:02;2.60;;;1.40;;
62798;SDS011;48842;51.046;13.796;2023-10-08T06:40:34;1.60;;;1.30;;
62798;SDS011;48842;51.046;13.796;2023-10-08T06:43:04;4.23;;;1.63;;
62798;SDS011;48842;51.046;13.796;2023-10-08T06:45:49;2.60;;;1.60;;
62798;SDS011;48842;51.046;13.796;2023-10-08T06:48:21;1.40;;;1.17;;
62798;SDS011;48842;51.046;13.796;2023-10-08T06:50:50;3.00;;;1.50;;
62798;SDS011;48842;51.046;13.796;2023-10-08T06:53:22;1.87;;;1.60;;
62798;SDS011;48842;51.046;13.796;2023-10-08T06:55:49;4.37;;;3.97;;
62798;SDS011;48842;51.046;13.796;2023-10-08T06:58:21;2.10;;;1.60;;
62798;SDS011;48842;51.046;13.796;2023-10-08T07:00:48;2.07;;;1.90;;
62798;SDS011;48842;51.046;13.796;2023-10-08T07:03:14;1.40;;;1.23;;
62798;SDS011;48842;51.046;13.796;2023-10-08T07:05:44;2.03;;;1.60;;
62798;SDS011;48842;51.046;13.796;2023-10-08T07:08:19;2.30;;;1.57;;
62798;SDS011;48842;51.046;13.796;2023-10-08T07:10:45;3.17;;;1.80;;
62798;SDS011;48842;51.046;13.796;2023-10-08T07:13:11;1.53;;;1.33;;
62798;SDS011;48842;51.046;13.796;2023-10-08T07:15:42;1.33;;;1.23;;
62798;SDS011;48842;51.046;13.796;2023-10-08T07:18:09;1.43;;;1.33;;
62798;SDS011;48842;51.046;13.796;2023-10-08T07:20:38;2.10;;;1.77;;
62798;SDS011;48842;51.046;13.796;2023-10-08T07:23:05;1.63;;;1.23;;
62798;SDS011;48842;51.046;13.796;2023-10-08T07:25:35;3.33;;;1.53;;
62798;SDS011;48842;51.046;13.796;2023-10-08T07:28:03;2.30;;;1.33;;
62798;SDS011;48842;51.046;13.796;2023-10-08T07:30:37;3.17;;;2.50;;
62798;SDS011;48842;51.046;13.796;2023-10-08T07:33:08;2.40;;;2.17;;
62798;SDS011;48842;51.046;13.796;2023-10-08T07:35:42;2.70;;;1.40;;
62798;SDS011;48842;51.046;13.796;2023-10-08T07:38:16;1.90;;;1.20;;
62798;SDS011;48842;51.046;13.796;2023-10-08T07:40:42;2.40;;;1.80;;
62798;SDS011;48842;51.046;13.796;2023-10-08T07:43:08;1.83;;;1.67;;
62798;SDS011;48842;51.046;13.796;2023-10-08T07:45:33;1.37;;;1.20;;
62798;SDS011;48842;51.046;13.796;2023-10-08T07:48:00;3.23;;;1.60;;
62798;SDS011;48842;51.046;13.796;2023-10-08T07:50:26;3.30;;;2.20;;
62798;SDS011;48842;51.046;13.796;2023-10-08T07:52:54;5.83;;;1.50;;
62798;SDS011;48842;51.046;13.796;2023-10-08T07:55:21;2.60;;;1.80;;
62798;SDS011;48842;51.046;13.796;2023-10-08T07:57:47;1.80;;;1.70;;
62798;SDS011;48842;51.046;13.796;2023-10-08T08:00:13;1.63;;;1.53;;
62798;SDS011;48842;51.046;13.796;2023-10-08T08:02:48;2.00;;;1.47;;
62798;SDS011;48842;51.046;13.796;2023-10-08T08:05:14;2.93;;;1.50;;
62798;SDS011;48842;51.046;13.796;2023-10-08T08:07:42;1.80;;;1.27;;
62798;SDS011;48842;51.046;13.796;2023-10-08T08:10:10;2.80;;;1.57;;
62798;SDS011;48842;51.046;13.796;2023-10-08T08:12:39;2.90;;;1.63;;
62798;SDS011;48842;51.046;13.796;2023-10-08T08:15:04;1.43;;;1.33;;
62798;SDS011;48842;51.046;13.796;2023-10-08T08:17:42;14.20;;;1.70;;
62798;SDS011;48842;51.046;13.796;2023-10-08T08:20:09;3.00;;;1.80;;
62798;SDS011;48842;51.046;13.796;2023-10-08T08:22:43;1.53;;;1.27;;
62798;SDS011;48842;51.046;13.796;2023-10-08T08:25:16;2.53;;;1.33;;
62798;SDS011;48842;51.046;13.796;2023-10-08T08:27:51;1.50;;;1.40;;
62798;SDS011;48842;51.046;13.796;2023-10-08T08:30:18;1.97;;;1.27;;
62798;SDS011;48842;51.046;13.796;2023-10-08T08:32:44;2.50;;;1.30;;
62798;SDS011;48842;51.046;13.796;2023-10-08T08:35:12;1.77;;;1.13;;
62798;SDS011;48842;51.046;13.796;2023-10-08T08:37:41;2.40;;;1.53;;
62798;SDS011;48842;51.046;13.796;2023-10-08T08:40:07;2.40;;;1.57;;
62798;SDS011;48842;51.046;13.796;2023-10-08T08:42:46;2.13;;;1.27;;
62798;SDS011;48842;51.046;13.796;2023-10-08T08:45:20;1.60;;;1.50;;
62798;SDS011;48842;51.046;13.796;2023-10-08T08:47:47;2.10;;;1.20;;
62798;SDS011;48842;51.046;13.796;2023-10-08T08:50:13;2.77;;;1.53;;
62798;SDS011;48842;51.046;13.796;2023-10-08T08:52:39;2.13;;;1.87;;
62798;SDS011;48842;51.046;13.796;2023-10-08T08:55:05;3.73;;;1.40;;
62798;SDS011;48842;51.046;13.796;2023-10-08T08:57:38;4.80;;;1.87;;
62798;SDS011;48842;51.046;13.796;2023-10-08T09:00:05;2.90;;;1.70;;
62798;SDS011;48842;51.046;13.796;2023-10-08T09:02:37;2.60;;;1.53;;
62798;SDS011;48842;51.046;13.796;2023-10-08T09:05:03;2.87;;;1.83;;
62798;SDS011;48842;51.046;13.796;2023-10-08T09:08:03;3.47;;;1.73;;
62798;SDS011;48842;51.046;13.796;2023-10-08T09:10:30;3.60;;;1.40;;
62798;SDS011;48842;51.046;13.796;2023-10-08T09:13:02;10.23;;;2.73;;
62798;SDS011;48842;51.046;13.796;2023-10-08T09:15:28;4.30;;;1.30;;
62798;SDS011;48842;51.046;13.796;2023-10-08T09:17:54;2.17;;;1.57;;
62798;SDS011;48842;51.046;13.796;2023-10-08T09:20:21;2.57;;;1.53;;
62798;SDS011;48842;51.046;13.796;2023-10-08T09:22:59;4.87;;;1.90;;
62798;SDS011;48842;51.046;13.796;2023-10-08T09:25:32;3.27;;;1.50;;
62798;SDS011;48842;51.046;13.796;2023-10-08T09:27:57;3.13;;;1.70;;
62798;SDS011;48842;51.046;13.796;2023-10-08T09:30:23;6.37;;;2.20;;
62798;SDS011;48842;51.046;13.796;2023-10-08T09:32:50;4.70;;;1.53;;
62798;SDS011;48842;51.046;13.796;2023-10-08T09:35:16;3.93;;;2.00;;
62798;SDS011;48842;51.046;13.796;2023-10-08T09:37:43;4.27;;;1.97;;
62798;SDS011;48842;51.046;13.796;2023-10-08T09:40:09;5.13;;;2.20;;
62798;SDS011;48842;51.046;13.796;2023-10-08T09:42:37;3.03;;;2.60;;
62798;SDS011;48842;51.046;13.796;2023-10-08T09:45:04;2.23;;;1.87;;
62798;SDS011;48842;51.046;13.796;2023-10-08T09:47:31;2.30;;;1.50;;
62798;SDS011;48842;51.046;13.796;2023-10-08T09:50:04;4.77;;;2.30;;
62798;SDS011;48842;51.046;13.796;2023-10-08T09:52:38;6.53;;;2.17;;
62798;SDS011;48842;51.046;13.796;2023-10-08T09:55:09;6.07;;;2.53;;
62798;SDS011;48842;51.046;13.796;2023-10-08T09:57:35;5.50;;;2.40;;
62798;SDS011;48842;51.046;13.796;2023-10-08T10:00:01;6.53;;;2.33;;
62798;SDS011;48842;51.046;13.796;2023-10-08T10:02:30;3.07;;;1.80;;
62798;SDS011;48842;51.046;13.796;2023-10-08T10:04:56;4.37;;;2.17;;
62798;SDS011;48842;51.046;13.796;2023-10-08T10:07:21;6.70;;;2.30;;
62798;SDS011;48842;51.046;13.796;2023-10-08T10:09:49;5.13;;;2.43;;
62798;SDS011;48842;51.046;13.796;2023-10-08T10:12:17;6.23;;;2.77;;
62798;SDS011;48842;51.046;13.796;2023-10-08T10:14:50;8.63;;;2.80;;
62798;SDS011;48842;51.046;13.796;2023-10-08T10:17:20;3.67;;;2.00;;
62798;SDS011;48842;51.046;13.796;2023-10-08T10:19:53;4.10;;;2.40;;
62798;SDS011;48842;51.046;13.796;2023-10-08T10:22:28;3.67;;;2.00;;
62798;SDS011;48842;51.046;13.796;2023-10-08T10:25:01;6.90;;;2.40;;
62798;SDS011;48842;51.046;13.796;2023-10-08T10:27:36;7.50;;;2.37;;
62798;SDS011;48842;51.046;13.796;2023-10-08T10:30:03;3.60;;;2.33;;
62798;SDS011;48842;51.046;13.796;2023-10-08T10:32:33;2.47;;;2.20;;
62798;SDS011;48842;51.046;13.796;2023-10-08T10:34:59;4.23;;;2.03;;
62798;SDS011;48842;51.046;13.796;2023-10-08T10:37:28;2.70;;;2.43;;
62798;SDS011;48842;51.046;13.796;2023-10-08T10:40:05;2.90;;;1.87;;
62798;SDS011;48842;51.046;13.796;2023-10-08T10:42:36;5.00;;;2.40;;
62798;SDS011;48842;51.046;13.796;2023-10-08T10:45:11;4.60;;;2.03;;
62798;SDS011;48842;51.046;13.796;2023-10-08T10:47:58;2.30;;;2.10;;
62798;SDS011;48842;51.046;13.796;2023-10-08T10:50:35;8.67;;;2.53;;
62798;SDS011;48842;51.046;13.796;2023-10-08T10:53:04;3.13;;;2.07;;
62798;SDS011;48842;51.046;13.796;2023-10-08T10:55:36;10.13;;;2.27;;
62798;SDS011;48842;51.046;13.796;2023-10-08T10:58:02;6.33;;;2.23;;
62798;SDS011;48842;51.046;13.796;2023-10-08T11:00:27;8.73;;;2.60;;
62798;SDS011;48842;51.046;13.796;2023-10-08T11:02:59;4.73;;;1.77;;
62798;SDS011;48842;51.046;13.796;2023-10-08T11:05:29;8.70;;;2.40;;
62798;SDS011;48842;51.046;13.796;2023-10-08T11:07:56;5.43;;;2.20;;
62798;SDS011;48842;51.046;13.796;2023-10-08T11:10:30;3.47;;;2.20;;
62798;SDS011;48842;51.046;13.796;2023-10-08T11:12:56;9.70;;;2.20;;
62798;SDS011;48842;51.046;13.796;2023-10-08T11:15:26;3.67;;;2.63;;
62798;SDS011;48842;51.046;13.796;2023-10-08T11:18:06;12.63;;;2.60;;
62798;SDS011;48842;51.046;13.796;2023-10-08T11:20:33;3.60;;;2.00;;
62798;SDS011;48842;51.046;13.796;2023-10-08T11:23:04;2.90;;;1.73;;
62798;SDS011;48842;51.046;13.796;2023-10-08T11:25:51;4.43;;;1.90;;
62798;SDS011;48842;51.046;13.796;2023-10-08T11:28:17;6.67;;;1.93;;
62798;SDS011;48842;51.046;13.796;2023-10-08T11:30:43;6.30;;;2.53;;
62798;SDS011;48842;51.046;13.796;2023-10-08T11:33:11;2.80;;;1.67;;
62798;SDS011;48842;51.046;13.796;2023-10-08T11:38:40;3.87;;;2.30;;
62798;SDS011;48842;51.046;13.796;2023-10-08T11:41:10;5.80;;;1.50;;
62798;SDS011;48842;51.046;13.796;2023-10-08T11:43:45;3.67;;;1.80;;
62798;SDS011;48842;51.046;13.796;2023-10-08T11:46:11;4.10;;;1.70;;
62798;SDS011;48842;51.046;13.796;2023-10-08T11:48:39;4.97;;;2.47;;
62798;SDS011;48842;51.046;13.796;2023-10-08T11:51:08;3.70;;;2.00;;
62798;SDS011;48842;51.046;13.796;2023-10-08T11:53:37;5.47;;;2.17;;
62798;SDS011;48842;51.046;13.796;2023-10-08T11:56:02;4.30;;;1.63;;
62798;SDS011;48842;51.046;13.796;2023-10-08T11:58:27;4.47;;;1.73;;
62798;SDS011;48842;51.046;13.796;2023-10-08T12:01:06;7.10;;;2.40;;
62798;SDS011;48842;51.046;13.796;2023-10-08T12:03:31;3.80;;;1.90;;
62798;SDS011;48842;51.046;13.796;2023-10-08T12:05:57;6.97;;;2.27;;
62798;SDS011;48842;51.046;13.796;2023-10-08T12:08:25;3.27;;;1.53;;
62798;SDS011;48842;51.046;13.796;2023-10-08T12:10:54;4.97;;;2.00;;
62798;SDS011;48842;51.046;13.796;2023-10-08T12:13:21;2.80;;;1.60;;
62798;SDS011;48842;51.046;13.796;2023-10-08T12:15:51;3.33;;;1.70;;
62798;SDS011;48842;51.046;13.796;2023-10-08T12:18:17;13.27;;;1.97;;
62798;SDS011;48842;51.046;13.796;2023-10-08T12:20:51;10.03;;;2.57;;
62798;SDS011;48842;51.046;13.796;2023-10-08T12:23:18;8.00;;;1.90;;
62798;SDS011;48842;51.046;13.796;2023-10-08T12:25:52;3.90;;;2.03;;
62798;SDS011;48842;51.046;13.796;2023-10-08T12:28:18;1.40;;;1.30;;
62798;SDS011;48842;51.046;13.796;2023-10-08T12:30:44;2.10;;;1.30;;
62798;SDS011;48842;51.046;13.796;2023-10-08T12:33:10;4.07;;;1.43;;
62798;SDS011;48842;51.046;13.796;2023-10-08T12:35:38;4.33;;;1.63;;
62798;SDS011;48842;51.046;13.796;2023-10-08T12:38:04;2.83;;;1.93;;
62798;SDS011;48842;51.046;13.796;2023-10-08T12:40:30;8.60;;;1.90;;
62798;SDS011;48842;51.046;13.796;2023-10-08T12:43:07;2.13;;;1.60;;
62798;SDS011;48842;51.046;13.796;2023-10-08T12:45:33;3.93;;;2.10;;
62798;SDS011;48842;51.046;13.796;2023-10-08T12:47:58;2.50;;;1.70;;
62798;SDS011;48842;51.046;13.796;2023-10-08T12:50:24;6.50;;;1.87;;
62798;SDS011;48842;51.046;13.796;2023-10-08T12:52:54;3.63;;;1.77;;
62798;SDS011;48842;51.046;13.796;2023-10-08T12:55:21;4.60;;;1.90;;
62798;SDS011;48842;51.046;13.796;2023-10-08T12:57:51;1.87;;;1.40;;
62798;SDS011;48842;51.046;13.796;2023-10-08T13:00:23;5.10;;;2.37;;
62798;SDS011;48842;51.046;13.796;2023-10-08T13:02:49;4.70;;;1.40;;
62798;SDS011;48842;51.046;13.796;2023-10-08T13:05:21;3.77;;;1.60;;
62798;SDS011;48842;51.046;13.796;2023-10-08T13:07:53;3.53;;;1.60;;
62798;SDS011;48842;51.046;13.796;2023-10-08T13:10:20;3.90;;;1.63;;
62798;SDS011;48842;51.046;13.796;2023-10-08T13:12:47;3.93;;;2.13;;
62798;SDS011;48842;51.046;13.796;2023-10-08T13:15:12;2.03;;;1.67;;
62798;SDS011;48842;51.046;13.796;2023-10-08T13:17:38;5.47;;;1.63;;
62798;SDS011;48842;51.046;13.796;2023-10-08T13:20:07;1.90;;;1.10;;
62798;SDS011;48842;51.046;13.796;2023-10-08T13:22:37;3.13;;;1.87;;
62798;SDS011;48842;51.046;13.796;2023-10-08T13:25:02;4.90;;;1.77;;
62798;SDS011;48842;51.046;13.796;2023-10-08T13:27:29;6.57;;;2.10;;
62798;SDS011;48842;51.046;13.796;2023-10-08T13:29:55;2.40;;;1.37;;
62798;SDS011;48842;51.046;13.796;2023-10-08T13:32:20;4.10;;;1.70;;
62798;SDS011;48842;51.046;13.796;2023-10-08T13:34:46;4.50;;;1.57;;
62798;SDS011;48842;51.046;13.796;2023-10-08T13:37:11;2.20;;;1.70;;
62798;SDS011;48842;51.046;13.796;2023-10-08T13:39:39;3.73;;;1.50;;
62798;SDS011;48842;51.046;13.796;2023-10-08T13:42:05;2.40;;;1.40;;
62798;SDS011;48842;51.046;13.796;2023-10-08T13:44:31;3.67;;;1.43;;
62798;SDS011;48842;51.046;13.796;2023-10-08T13:46:56;3.20;;;1.30;;
62798;SDS011;48842;51.046;13.796;2023-10-08T13:49:24;4.70;;;1.17;;
62798;SDS011;48842;51.046;13.796;2023-10-08T13:51:51;3.10;;;1.37;;
62798;SDS011;48842;51.046;13.796;2023-10-08T13:54:21;4.60;;;1.40;;
62798;SDS011;48842;51.046;13.796;2023-10-08T13:56:50;5.30;;;1.63;;
62798;SDS011;48842;51.046;13.796;2023-10-08T13:59:16;3.07;;;1.50;;
62798;SDS011;48842;51.046;13.796;2023-10-08T14:01:42;2.50;;;1.27;;
62798;SDS011;48842;51.046;13.796;2023-10-08T14:04:11;1.77;;;1.17;;
62798;SDS011;48842;51.046;13.796;2023-10-08T14:06:40;4.87;;;2.00;;
62798;SDS011;48842;51.046;13.796;2023-10-08T14:09:07;6.63;;;1.70;;
62798;SDS011;48842;51.046;13.796;2023-10-08T14:11:34;1.90;;;1.20;;
62798;SDS011;48842;51.046;13.796;2023-10-08T14:14:00;3.07;;;1.60;;
62798;SDS011;48842;51.046;13.796;2023-10-08T14:16:27;2.23;;;1.83;;
62798;SDS011;48842;51.046;13.796;2023-10-08T14:18:54;5.53;;;2.27;;
62798;SDS011;48842;51.046;13.796;2023-10-08T14:21:21;5.20;;;1.70;;
62798;SDS011;48842;51.046;13.796;2023-10-08T14:23:52;4.07;;;1.47;;
62798;SDS011;48842;51.046;13.796;2023-10-08T14:26:21;2.60;;;1.53;;
62798;SDS011;48842;51.046;13.796;2023-10-08T14:28:47;5.70;;;1.47;;
62798;SDS011;48842;51.046;13.796;2023-10-08T14:31:18;1.90;;;1.40;;
62798;SDS011;48842;51.046;13.796;2023-10-08T14:33:47;3.53;;;1.50;;
62798;SDS011;48842;51.046;13.796;2023-10-08T14:36:33;4.03;;;1.90;;
62798;SDS011;48842;51.046;13.796;2023-10-08T14:39:17;1.53;;;1.40;;
62798;SDS011;48842;51.046;13.796;2023-10-08T14:42:02;2.07;;;1.20;;
62798;SDS011;48842;51.046;13.796;2023-10-08T14:44:46;6.33;;;2.53;;
62798;SDS011;48842;51.046;13.796;2023-10-08T14:47:12;2.50;;;1.77;;
62798;SDS011;48842;51.046;13.796;2023-10-08T14:49:37;3.87;;;1.90;;
62798;SDS011;48842;51.046;13.796;2023-10-08T14:52:03;2.57;;;1.40;;
62798;SDS011;48842;51.046;13.796;2023-10-08T14:54:30;8.93;;;1.70;;
62798;SDS011;48842;51.046;13.796;2023-10-08T14:56:56;3.67;;;1.50;;
62798;SDS011;48842;51.046;13.796;2023-10-08T14:59:22;2.70;;;1.70;;
62798;SDS011;48842;51.046;13.796;2023-10-08T15:01:48;4.70;;;1.60;;